Time;durP1;ratioP1;P1;durP2;ratioP2;P2;SDS_P1;SDS_P2;PMS_P1;PMS_P2;Temp;Humidity;BMP_temperature;BMP_pressure;BME280_temperature;BME280_humidity;BME280_pressure;Samples;Min_cycle;Max_cycle;Signal;HPM_P1;HPM_P2
2022/06/17 00:02:04;;;;;;;8.38;2.30;;;;;;;16.03;79.57;100890.63;4975324;28;20030;-81
2022/06/17 00:04:30;;;;;;;3.97;2.30;;;;;;;16.01;79.59;100881.88;4960355;28;20049;-81
2022/06/17 00:06:57;;;;;;;4.57;2.60;;;;;;;15.99;79.75;100877.72;4970694;28;20121;-82
2022/06/17 00:09:24;;;;;;;6.43;2.35;;;;;;;16.02;79.66;100886.25;4985225;28;20042;-80
2022/06/17 00:11:50;;;;;;;5.63;3.15;;;;;;;16.05;79.85;100888.53;4973728;28;20426;-80
2022/06/17 00:14:23;;;;;;;6.78;2.88;;;;;;;16.03;79.78;100882.50;4986320;28;20033;-80
2022/06/17 00:16:49;;;;;;;4.05;2.13;;;;;;;15.99;80.12;100883.97;4972639;28;20042;-82
2022/06/17 00:19:18;;;;;;;4.03;1.88;;;;;;;15.97;80.57;100874.38;4985040;28;20034;-83
2022/06/17 00:21:45;;;;;;;7.57;2.40;;;;;;;15.94;80.72;100880.22;4966304;28;20534;-79
2022/06/17 00:24:14;;;;;;;8.13;2.60;;;;;;;15.81;81.05;100871.00;4971096;28;20097;-84
2022/06/17 00:26:39;;;;;;;7.88;2.50;;;;;;;15.77;81.44;100880.63;4966302;28;20041;-82
2022/06/17 00:29:08;;;;;;;6.97;2.50;;;;;;;15.78;81.20;100882.28;4980241;28;20030;-83
2022/06/17 00:31:33;;;;;;;3.85;2.33;;;;;;;15.72;81.58;100866.03;4987379;28;20030;-83
2022/06/17 00:33:59;;;;;;;6.72;2.72;;;;;;;15.79;81.76;100874.97;4982716;28;20045;-82
2022/06/17 00:36:24;;;;;;;5.13;2.53;;;;;;;15.69;82.58;100871.84;4962393;28;20089;-80
2022/06/17 00:38:52;;;;;;;4.05;2.15;;;;;;;15.65;83.49;100873.28;4970207;28;20026;-83
2022/06/17 00:41:36;;;;;;;5.55;2.22;;;;;;;15.65;83.67;100870.56;4960345;28;20053;-83
2022/06/17 00:44:38;;;;;;;5.28;2.40;;;;;;;15.61;84.02;100864.69;4981081;28;20057;-84
2022/06/17 00:47:13;;;;;;;6.07;2.38;;;;;;;15.61;84.16;100864.69;4988801;28;20042;-82
2022/06/17 00:50:03;;;;;;;5.10;1.98;;;;;;;15.58;84.45;100862.41;4988665;28;20037;-83
2022/06/17 00:52:39;;;;;;;5.30;2.38;;;;;;;15.60;84.41;100858.44;4992910;28;20034;-81
2022/06/17 00:55:23;;;;;;;6.90;2.60;;;;;;;15.58;84.44;100855.09;4969245;28;20039;-80
2022/06/17 00:57:48;;;;;;;6.65;2.70;;;;;;;15.55;84.74;100860.13;5001960;28;20038;-84
2022/06/17 01:00:44;;;;;;;5.28;3.28;;;;;;;15.51;85.44;100865.13;4988558;28;20049;-84
2022/06/17 01:03:37;;;;;;;5.05;2.55;;;;;;;15.50;85.90;100865.31;4946990;28;20117;-84
2022/06/17 01:06:13;;;;;;;;;;;;;;;15.41;86.31;100858.44;4955957;28;20038;-83
2022/06/17 01:11:45;;;;;;;8.43;2.60;;;;;;;15.25;87.76;100852.34;4995011;28;20030;-81
2022/06/17 01:14:25;;;;;;;6.38;2.80;;;;;;;15.23;88.02;100850.88;4952522;28;20050;-83
2022/06/17 01:16:56;;;;;;;5.10;2.88;;;;;;;15.18;88.59;100837.94;4966578;28;20384;-83
2022/06/17 01:19:30;;;;;;;5.32;2.78;;;;;;;15.15;88.89;100838.34;4966587;28;20038;-83
2022/06/17 01:22:10;;;;;;;4.32;2.53;;;;;;;15.16;89.39;100835.44;4985516;28;20030;-81
2022/06/17 01:24:36;;;;;;;7.57;2.42;;;;;;;15.15;89.74;100832.94;4966425;28;20058;-81
2022/06/17 01:27:02;;;;;;;5.05;3.28;;;;;;;15.08;89.76;100822.09;4964300;28;20038;-83
2022/06/17 01:29:27;;;;;;;7.30;2.83;;;;;;;15.21;89.60;100836.69;4962809;28;20054;-81
2022/06/17 01:31:54;;;;;;;5.85;3.00;;;;;;;15.19;89.52;100823.38;4970525;28;20041;-83
2022/06/17 01:34:21;;;;;;;4.55;2.83;;;;;;;15.23;89.28;100832.75;4964501;28;20028;-82
2022/06/17 01:36:47;;;;;;;10.23;3.55;;;;;;;15.26;89.61;100843.16;4961064;28;20377;-80
2022/06/17 01:39:14;;;;;;;9.82;3.40;;;;;;;15.29;89.26;100833.78;4982071;28;20105;-80
2022/06/17 01:41:42;;;;;;;7.47;2.67;;;;;;;15.12;89.21;100800.84;4981882;28;20027;-80
2022/06/17 01:44:12;;;;;;;6.10;3.13;;;;;;;15.32;89.20;100827.97;4985476;28;20037;-84
2022/06/17 01:46:40;;;;;;;7.22;2.67;;;;;;;15.21;89.17;100815.84;4979934;28;20054;-82
2022/06/17 01:49:19;;;;;;;4.88;2.55;;;;;;;15.34;89.06;100848.41;4980599;28;20030;-83
2022/06/17 01:51:58;;;;;;;5.53;3.05;;;;;;;15.37;88.94;100858.84;4951895;28;20097;-81
2022/06/17 01:54:28;;;;;;;9.55;2.67;;;;;;;15.38;89.14;100856.97;4981921;28;20807;-83
2022/06/17 01:56:56;;;;;;;10.10;3.20;;;;;;;15.35;89.06;100849.25;4978580;28;20031;-82
2022/06/17 01:59:29;;;;;;;6.85;2.72;;;;;;;15.34;88.73;100834.84;4979090;28;20038;-81
2022/06/17 02:01:57;;;;;;;9.57;3.15;;;;;;;15.46;88.49;100845.09;4964239;28;20479;-81
2022/06/17 02:04:29;;;;;;;7.28;2.65;;;;;;;15.46;88.46;100847.81;4954107;28;20045;-81
2022/06/17 02:07:04;;;;;;;7.07;2.25;;;;;;;15.48;88.27;100852.00;4971195;28;20121;-82
2022/06/17 02:09:29;;;;;;;6.43;3.15;;;;;;;15.47;88.11;100849.47;4981303;28;20261;-82
2022/06/17 02:11:55;;;;;;;6.50;2.95;;;;;;;15.34;88.41;100834.84;4979020;28;20037;-82
2022/06/17 02:14:22;;;;;;;4.18;2.78;;;;;;;15.35;88.46;100833.81;4960786;28;20030;-84
2022/06/17 02:16:51;;;;;;;4.32;3.00;;;;;;;15.46;88.28;100845.09;4984080;28;20034;-81
2022/06/17 02:19:18;;;;;;;6.85;2.83;;;;;;;15.43;88.36;100831.94;4966286;28;20038;-82
2022/06/17 02:21:52;;;;;;;4.00;2.70;;;;;;;15.43;88.28;100838.22;4978756;28;20129;-80
2022/06/17 02:24:20;;;;;;;9.50;3.90;;;;;;;15.42;88.29;100841.94;4978231;28;20038;-80
2022/06/17 02:26:46;;;;;;;8.82;3.28;;;;;;;15.40;88.54;100841.34;4992881;28;20523;-83
2022/06/17 02:29:13;;;;;;;7.72;2.95;;;;;;;15.36;88.45;100838.19;4963049;28;20065;-82
2022/06/17 02:31:41;;;;;;;10.98;2.75;;;;;;;15.34;88.77;100842.97;4981666;28;20066;-83
2022/06/17 02:34:08;;;;;;;7.90;3.50;;;;;;;15.28;89.02;100827.56;4972286;28;20030;-80
2022/06/17 02:36:55;;;;;;;4.43;2.90;;;;;;;15.32;89.18;100834.25;4943631;28;20031;-82
2022/06/17 02:39:21;;;;;;;10.32;3.78;;;;;;;15.30;89.07;100836.31;4976725;28;20073;-81
2022/06/17 02:41:48;;;;;;;7.50;3.08;;;;;;;15.21;89.62;100829.41;4977466;28;20516;-81
2022/06/17 02:44:14;;;;;;;8.35;3.08;;;;;;;15.25;90.00;100840.69;4981481;28;20085;-80
2022/06/17 02:46:41;;;;;;;7.95;4.30;;;;;;;15.22;90.26;100841.91;4974298;28;20043;-86
2022/06/17 02:49:16;;;;;;;6.63;2.97;;;;;;;15.25;90.43;100846.94;4976884;28;20181;-81
2022/06/17 02:51:43;;;;;;;8.27;3.67;;;;;;;15.25;90.41;100844.22;4959110;28;20030;-83
2022/06/17 02:54:37;;;;;;;6.90;3.00;;;;;;;15.15;90.30;100835.66;4975466;28;20042;-83
2022/06/17 02:57:03;;;;;;;8.10;2.83;;;;;;;15.26;90.48;100858.59;4960375;28;20046;-81
2022/06/17 02:59:36;;;;;;;4.60;3.00;;;;;;;15.26;90.37;100848.59;4994692;28;20222;-83
2022/06/17 03:02:14;;;;;;;8.75;4.00;;;;;;;15.28;90.46;100859.22;4979097;28;20042;-81
2022/06/17 03:04:42;;;;;;;6.97;2.75;;;;;;;15.33;90.36;100873.81;4978618;28;20031;-82
2022/06/17 03:07:20;;;;;;;9.75;3.13;;;;;;;15.34;89.91;100872.78;4969581;28;20028;-82
2022/06/17 03:09:46;;;;;;;6.57;3.25;;;;;;;15.39;90.05;100880.28;4976311;28;20101;-82
2022/06/17 03:12:27;;;;;;;7.80;3.17;;;;;;;15.41;90.01;100870.09;4983952;28;20472;-84
2022/06/17 03:15:02;;;;;;;4.82;2.80;;;;;;;15.37;90.17;100858.00;4958339;28;20027;-84
2022/06/17 03:17:28;;;;;;;6.82;2.83;;;;;;;15.25;90.51;100830.69;4980369;28;20050;-84
2022/06/17 03:19:55;;;;;;;7.32;3.00;;;;;;;15.28;90.49;100822.13;4989440;28;20034;-82
2022/06/17 03:22:21;;;;;;;11.30;4.07;;;;;;;15.28;90.55;100811.28;4961561;28;20022;-83
2022/06/17 03:24:55;;;;;;;6.15;2.90;;;;;;;15.32;91.03;100809.84;4971414;28;20447;-85
2022/06/17 03:27:38;;;;;;;7.20;3.58;;;;;;;15.26;91.14;100807.13;4987683;28;20030;-83
2022/06/17 03:30:04;;;;;;;;;;;;;;;15.28;91.59;100803.16;4985515;28;20053;-83
2022/06/17 03:32:34;;;;;;;7.93;3.40;;;;;;;15.25;91.73;100790.03;4973678;28;20012;-81
2022/06/17 03:34:59;;;;;;;7.10;3.13;;;;;;;15.23;92.13;100792.13;4991654;28;20037;-81
2022/06/17 03:37:31;;;;;;;6.15;3.30;;;;;;;15.24;92.28;100798.34;4958605;28;20050;-84
2022/06/17 03:40:06;;;;;;;9.07;3.60;;;;;;;15.23;92.52;100800.25;4960678;28;20298;-80
2022/06/17 03:42:44;;;;;;;13.20;4.07;;;;;;;15.18;92.84;100798.13;4962601;28;20057;-81
2022/06/17 03:45:15;;;;;;;8.00;2.72;;;;;;;15.22;92.77;100800.47;4969271;28;20469;-81
2022/06/17 03:47:52;;;;;;;7.28;3.60;;;;;;;15.18;92.97;100797.31;4991412;28;20034;-81
2022/06/17 03:50:31;;;;;;;8.73;3.40;;;;;;;15.23;93.03;100816.50;4971561;28;20061;-84
2022/06/17 03:53:01;;;;;;;10.25;3.88;;;;;;;15.21;93.06;100821.28;4984057;28;20096;-80
2022/06/17 03:55:28;;;;;;;11.35;3.85;;;;;;;15.16;93.15;100812.91;4970760;28;20403;-82
2022/06/17 03:57:55;;;;;;;11.30;3.97;;;;;;;15.12;93.29;100808.97;4976638;28;20038;-80
2022/06/17 04:00:32;;;;;;;8.38;3.15;;;;;;;15.14;93.54;100812.31;4999858;28;20076;-82
2022/06/17 04:03:00;;;;;;;10.35;5.07;;;;;;;15.08;94.00;100823.94;4980476;28;20053;-81
2022/06/17 04:05:26;;;;;;;8.70;5.18;;;;;;;15.01;94.26;100823.13;4996673;28;20030;-80
2022/06/17 04:07:52;;;;;;;8.38;3.88;;;;;;;14.93;94.55;100822.25;4987717;28;20365;-81
2022/06/17 04:10:23;;;;;;;7.78;3.60;;;;;;;14.85;95.48;100830.56;4987679;28;20045;-82
2022/06/17 04:12:51;;;;;;;9.23;3.53;;;;;;;14.89;96.07;100829.09;4979677;28;22251;-79
2022/06/17 04:15:16;;;;;;;7.18;4.40;;;;;;;14.93;96.00;100835.78;4981403;28;20428;-81
2022/06/17 04:17:44;;;;;;;10.20;3.63;;;;;;;14.99;96.08;100836.00;4979013;28;20491;-83
2022/06/17 04:20:32;;;;;;;10.05;3.90;;;;;;;15.01;95.80;100834.78;4986860;28;20117;-84
2022/06/17 04:23:21;;;;;;;14.75;4.28;;;;;;;15.04;95.50;100822.69;4971268;28;20169;-85
2022/06/17 04:26:12;;;;;;;10.82;4.18;;;;;;;15.12;95.53;100828.75;4951884;28;20181;-80
2022/06/17 04:28:43;;;;;;;9.57;3.97;;;;;;;15.12;95.54;100820.63;4971900;28;20118;-81
2022/06/17 04:31:14;;;;;;;10.40;3.60;;;;;;;15.11;96.27;100810.84;4982361;28;20048;-79
2022/06/17 04:33:50;;;;;;;9.65;3.83;;;;;;;14.97;96.58;100798.28;4982573;28;20034;-82
2022/06/17 04:36:22;;;;;;;10.90;4.18;;;;;;;15.00;96.99;100802.47;4979098;28;20492;-80
2022/06/17 04:38:48;;;;;;;10.77;4.07;;;;;;;14.99;97.47;100808.94;4988550;28;20037;-80
2022/06/17 04:41:15;;;;;;;8.05;3.42;;;;;;;14.94;97.78;100804.94;4978157;28;20042;-80
2022/06/17 04:43:47;;;;;;;9.35;4.10;;;;;;;14.81;98.02;100780.53;4972931;28;20057;-81
2022/06/17 04:46:20;;;;;;;9.75;4.05;;;;;;;14.98;98.32;100813.53;4969665;28;20049;-80
2022/06/17 04:48:48;;;;;;;11.43;6.95;;;;;;;15.02;98.16;100812.06;4972788;28;20046;-80
2022/06/17 04:51:14;;;;;;;6.55;3.90;;;;;;;15.10;97.69;100814.59;4953488;28;20106;-81
2022/06/17 04:53:42;;;;;;;12.95;5.40;;;;;;;15.21;97.61;100823.97;4987757;28;20481;-82
2022/06/17 04:56:14;;;;;;;9.75;3.88;;;;;;;15.19;97.50;100815.25;4971925;28;20038;-79
2022/06/17 04:58:40;;;;;;;16.50;4.93;;;;;;;15.30;97.23;100820.06;4967836;28;20105;-82
2022/06/17 05:01:05;;;;;;;10.25;4.07;;;;;;;15.41;97.16;100825.91;4990506;28;20412;-80
2022/06/17 05:03:31;;;;;;;8.93;3.47;;;;;;;15.38;96.64;100817.16;4957600;28;20038;-82
2022/06/17 05:05:56;;;;;;;12.20;4.20;;;;;;;15.51;95.70;100820.94;4970929;28;20031;-81
2022/06/17 05:08:28;;;;;;;10.85;4.10;;;;;;;15.57;95.82;100829.06;4972450;28;20060;-81
2022/06/17 05:11:07;;;;;;;8.10;3.90;;;;;;;15.61;95.72;100826.75;4993106;28;20066;-81
2022/06/17 05:13:51;;;;;;;11.20;4.70;;;;;;;15.61;95.62;100818.63;4956507;28;20532;-81
2022/06/17 05:16:17;;;;;;;11.52;4.70;;;;;;;15.68;95.52;100815.94;4956716;28;20038;-81
2022/06/17 05:18:42;;;;;;;13.07;4.10;;;;;;;15.67;95.05;100820.53;4991713;28;20085;-80
2022/06/17 05:21:18;;;;;;;13.63;5.10;;;;;;;15.67;95.11;100814.28;4985369;28;20481;-80
2022/06/17 05:23:43;;;;;;;11.57;4.43;;;;;;;15.63;95.38;100813.00;4989551;28;20106;-83
2022/06/17 05:26:10;;;;;;;11.07;4.53;;;;;;;15.53;95.40;100808.84;4987119;28;20118;-80
2022/06/17 05:28:35;;;;;;;12.93;4.57;;;;;;;15.69;95.60;100834.75;4986340;28;20030;-81
2022/06/17 05:31:01;;;;;;;9.18;4.30;;;;;;;15.70;95.12;100830.97;4964117;28;20049;-82
2022/06/17 05:33:28;;;;;;;9.80;4.82;;;;;;;15.73;94.59;100829.72;4985137;28;20100;-84
2022/06/17 05:35:54;;;;;;;11.63;4.68;;;;;;;15.79;94.35;100823.47;4986437;28;20101;-83
2022/06/17 05:38:20;;;;;;;11.57;4.90;;;;;;;15.85;94.14;100830.78;4985643;28;20030;-86
2022/06/17 05:40:46;;;;;;;10.18;4.38;;;;;;;15.92;93.96;100838.91;4971830;28;20482;-83
2022/06/17 05:43:12;;;;;;;8.82;4.63;;;;;;;15.89;93.76;100845.56;4985298;28;20038;-81
2022/06/17 05:45:38;;;;;;;8.18;4.30;;;;;;;15.89;93.88;100852.88;4985548;28;20042;-81
2022/06/17 05:48:04;;;;;;;9.93;4.18;;;;;;;15.81;94.11;100859.34;4972993;28;20045;-81
2022/06/17 05:50:30;;;;;;;6.88;3.88;;;;;;;15.78;94.40;100857.88;4957755;28;20454;-81
2022/06/17 05:52:59;;;;;;;11.27;4.70;;;;;;;15.80;94.57;100858.50;4982309;28;20085;-81
2022/06/17 05:55:27;;;;;;;10.05;4.10;;;;;;;15.77;94.09;100842.66;4992884;28;20046;-81
2022/06/17 05:57:53;;;;;;;7.32;4.05;;;;;;;15.79;94.28;100848.69;4967977;28;20030;-79
2022/06/17 06:00:19;;;;;;;13.52;4.28;;;;;;;15.80;94.48;100836.81;4952678;28;20038;-81
2022/06/17 06:02:45;;;;;;;11.20;5.28;;;;;;;15.83;94.18;100841.00;4955579;28;20049;-81
2022/06/17 06:05:18;;;;;;;12.85;4.38;;;;;;;15.87;94.18;100846.81;4979406;28;20034;-86
2022/06/17 06:07:44;;;;;;;12.05;4.70;;;;;;;15.87;94.16;100838.69;4977424;28;20035;-82
2022/06/17 06:10:10;;;;;;;13.90;4.40;;;;;;;15.94;94.04;100863.94;4978095;28;20409;-82
2022/06/17 06:12:57;;;;;;;8.98;4.70;;;;;;;15.91;93.77;100862.47;4977364;28;20093;-81
2022/06/17 06:15:29;;;;;;;10.73;4.45;;;;;;;16.08;93.15;100879.16;4965005;28;20377;-80
2022/06/17 06:17:55;;;;;;;16.13;5.32;;;;;;;16.18;92.50;100870.59;4978030;28;20045;-79
2022/06/17 06:20:21;;;;;;;12.68;5.35;;;;;;;16.45;91.52;100887.69;4979099;28;20035;-81
2022/06/17 06:22:47;;;;;;;11.40;5.03;;;;;;;16.53;90.99;100882.03;4978365;28;20428;-80
2022/06/17 06:25:16;;;;;;;10.45;5.20;;;;;;;16.49;90.59;100878.91;4979672;28;20073;-80
2022/06/17 06:27:41;;;;;;;13.98;5.97;;;;;;;16.51;90.91;100883.28;4961153;28;20451;-80
2022/06/17 06:30:20;;;;;;;11.35;5.07;;;;;;;16.49;91.23;100883.50;4982039;28;20038;-80
2022/06/17 06:32:50;;;;;;;15.23;4.85;;;;;;;16.46;91.38;100883.94;4989555;28;20038;-83
2022/06/17 06:35:17;;;;;;;12.05;4.68;;;;;;;16.38;91.28;100884.13;4986676;28;20040;-84
2022/06/17 06:37:43;;;;;;;7.80;4.63;;;;;;;16.33;91.85;100887.50;4984885;28;20042;-80
2022/06/17 06:40:10;;;;;;;7.47;4.85;;;;;;;16.31;91.87;100880.63;4969464;28;20030;-80
2022/06/17 06:42:36;;;;;;;9.70;4.53;;;;;;;16.39;91.60;100883.94;4946229;28;20113;-81
2022/06/17 06:45:02;;;;;;;10.60;4.70;;;;;;;16.41;91.34;100881.84;4986649;28;20464;-85
2022/06/17 06:47:28;;;;;;;13.52;5.68;;;;;;;16.50;91.08;100896.03;4989555;28;20121;-82
2022/06/17 06:49:53;;;;;;;10.63;4.57;;;;;;;16.51;90.94;100894.97;4955044;28;20035;-81
2022/06/17 06:52:19;;;;;;;9.57;4.32;;;;;;;16.31;91.14;100878.72;4989957;28;20061;-80
2022/06/17 06:54:50;;;;;;;10.00;4.57;;;;;;;16.39;91.49;100907.53;4971951;28;20034;-81
2022/06/17 06:57:16;;;;;;;10.23;4.88;;;;;;;16.24;92.06;100913.16;4968533;28;20038;-81
2022/06/17 06:59:49;;;;;;;9.88;4.88;;;;;;;16.15;92.75;100914.44;4985885;28;20117;-83
2022/06/17 07:02:14;;;;;;;13.05;5.70;;;;;;;16.11;93.60;100935.69;4989147;28;20034;-81
2022/06/17 07:04:40;;;;;;;13.23;4.65;;;;;;;16.07;93.74;100939.06;4988442;28;20030;-84
2022/06/17 07:07:05;;;;;;;13.60;5.00;;;;;;;16.00;94.12;100936.31;4989023;28;20041;-81
2022/06/17 07:09:31;;;;;;;12.07;4.72;;;;;;;16.04;94.49;100934.88;4954013;28;20030;-81
2022/06/17 07:12:00;;;;;;;13.77;5.45;;;;;;;16.07;94.71;100928.19;4988223;28;20034;-81
2022/06/17 07:14:25;;;;;;;10.55;5.40;;;;;;;16.02;95.77;100926.09;4965595;28;20085;-85
2022/06/17 07:16:51;;;;;;;12.30;5.38;;;;;;;15.94;96.89;100918.19;4986959;28;20034;-79
2022/06/17 07:19:19;;;;;;;18.17;7.13;;;;;;;15.91;98.17;100919.44;4956322;28;20112;-81
2022/06/17 07:21:45;;;;;;;12.63;6.43;;;;;;;15.87;98.93;100923.56;4991300;28;20424;-82
2022/06/17 07:24:11;;;;;;;12.57;6.75;;;;;;;15.89;99.09;100917.97;4984556;28;20034;-83
2022/06/17 07:26:37;;;;;;;9.55;4.78;;;;;;;16.03;98.83;100939.44;4979491;28;20072;-82
2022/06/17 07:29:03;;;;;;;12.25;4.97;;;;;;;16.08;98.59;100930.69;4950349;28;20527;-81
2022/06/17 07:31:29;;;;;;;8.77;3.92;;;;;;;16.18;98.65;100947.41;4981903;28;20507;-81
2022/06/17 07:33:57;;;;;;;13.18;3.83;;;;;;;16.19;100.00;100938.19;4953021;28;20092;-81
2022/06/17 07:41:57;;;;;;;8.05;3.60;;;;;;;15.75;100.00;100947.75;4982933;28;20420;-81
2022/06/17 07:44:23;;;;;;;6.97;3.88;;;;;;;15.69;100.00;100964.00;4983330;28;20112;-81
2022/06/17 07:46:49;;;;;;;3.17;1.92;;;;;;;15.61;100.00;100963.13;4970473;28;20113;-85
2022/06/17 07:49:14;;;;;;;5.10;2.75;;;;;;;15.57;100.00;100967.28;4974763;28;20113;-83
2022/06/17 07:51:40;;;;;;;6.40;2.88;;;;;;;15.57;100.00;100956.44;4956939;28;20176;-80
2022/06/17 07:54:06;;;;;;;4.25;2.55;;;;;;;15.52;100.00;100960.81;4988961;28;20037;-79
2022/06/17 07:56:32;;;;;;;9.38;3.38;;;;;;;15.51;100.00;100970.81;4987010;28;20042;-82
2022/06/17 07:58:58;;;;;;;7.30;3.25;;;;;;;15.44;100.00;100969.94;4984079;28;20100;-84
2022/06/17 08:01:24;;;;;;;7.82;3.08;;;;;;;15.45;100.00;100981.59;4991587;28;20034;-82
2022/06/17 08:03:49;;;;;;;11.43;3.90;;;;;;;15.41;100.00;100978.47;4990741;28;20042;-82
2022/06/17 08:06:16;;;;;;;9.73;3.50;;;;;;;15.44;100.00;100982.66;4986251;28;20041;-80
2022/06/17 08:08:43;;;;;;;4.85;2.72;;;;;;;15.45;100.00;100978.91;4954083;28;20034;-80
2022/06/17 08:11:09;;;;;;;6.88;2.90;;;;;;;15.36;100.00;100965.53;4986942;28;20018;-82
2022/06/17 08:13:35;;;;;;;8.40;3.35;;;;;;;15.43;100.00;100984.53;4972241;28;20457;-81
2022/06/17 08:16:03;;;;;;;4.55;1.85;;;;;;;15.44;100.00;100982.66;4985891;28;20101;-81
2022/06/17 08:18:33;;;;;;;3.97;2.58;;;;;;;15.35;100.00;100968.47;4987991;28;20058;-81
2022/06/17 08:20:59;;;;;;;5.82;2.83;;;;;;;15.34;100.00;100975.72;4986181;28;20132;-80
2022/06/17 08:23:25;;;;;;;4.78;2.50;;;;;;;15.42;100.00;101001.00;4990983;28;20034;-81
2022/06/17 08:25:51;;;;;;;3.03;1.90;;;;;;;15.41;100.00;101004.75;4971315;28;20498;-82
2022/06/17 08:28:18;;;;;;;7.22;2.47;;;;;;;15.44;100.00;101009.75;4977470;28;20053;-81
2022/06/17 08:30:47;;;;;;;3.83;2.17;;;;;;;15.44;100.00;101009.75;4970700;28;20502;-82
2022/06/17 08:33:16;;;;;;;4.15;1.90;;;;;;;15.52;100.00;101007.69;4990869;28;20041;-84
2022/06/17 08:35:44;;;;;;;3.05;1.65;;;;;;;15.55;100.00;101012.72;4986799;28;20049;-83
2022/06/17 08:38:21;;;;;;;5.18;1.90;;;;;;;15.53;100.00;101003.09;4962216;28;20034;-82
2022/06/17 08:40:50;;;;;;;4.65;2.45;;;;;;;15.61;100.00;101011.91;4968161;28;20042;-81
2022/06/17 08:43:22;;;;;;;6.43;2.20;;;;;;;15.68;100.00;101019.22;4990858;28;20419;-83
2022/06/17 08:46:19;;;;;;;4.25;1.83;;;;;;;15.71;100.00;101021.56;4974599;28;20046;-84
2022/06/17 08:49:03;;;;;;;3.80;2.00;;;;;;;15.73;100.00;101011.38;4972359;28;20045;-81
2022/06/17 08:51:36;;;;;;;4.15;1.70;;;;;;;15.75;100.00;101012.84;5003769;28;22333;-80
2022/06/17 08:54:08;;;;;;;6.25;2.88;;;;;;;15.87;100.00;101020.38;4969374;28;20482;-79
2022/06/17 08:57:00;;;;;;;3.47;1.55;;;;;;;16.09;100.00;101027.31;4957388;28;20043;-80
2022/06/17 09:00:06;;;;;;;3.97;1.95;;;;;;;16.05;100.00;101034.19;4972182;28;20041;-81
2022/06/17 09:02:50;;;;;;;3.55;1.15;;;;;;;15.98;100.00;101030.59;4948518;28;20449;-88
2022/06/17 09:05:24;;;;;;;3.25;1.30;;;;;;;15.96;100.00;101040.84;4969112;28;20054;-88
2022/06/17 09:08:01;;;;;;;3.22;1.65;;;;;;;15.95;100.00;101045.41;4965335;28;20650;-85
2022/06/17 09:10:46;;;;;;;3.08;1.67;;;;;;;15.92;100.00;101047.72;4985583;28;20114;-88
2022/06/17 09:13:34;;;;;;;3.00;1.60;;;;;;;15.93;100.00;101041.22;4953861;28;20450;-87
2022/06/17 09:16:22;;;;;;;1.60;1.10;;;;;;;16.00;100.00;101042.94;4987434;28;20125;-88
2022/06/17 09:18:50;;;;;;;2.20;1.00;;;;;;;16.00;100.00;101047.53;4987293;28;20030;-85
2022/06/17 09:21:41;;;;;;;1.88;1.10;;;;;;;16.10;100.00;101047.97;4955562;28;20041;-84
2022/06/17 09:24:08;;;;;;;1.02;0.80;;;;;;;16.24;100.00;101044.22;4990737;28;20487;-85
2022/06/17 09:27:19;;;;;;;2.70;0.80;;;;;;;16.37;100.00;101053.44;4974036;28;20030;-84
2022/06/17 09:30:01;;;;;;;1.17;0.80;;;;;;;16.42;100.00;101054.50;4939323;28;20129;-85
2022/06/17 09:32:41;;;;;;;1.05;0.65;;;;;;;16.36;100.00;101068.06;4936345;28;20054;-82
2022/06/17 09:35:36;;;;;;;1.13;0.77;;;;;;;16.35;100.00;101069.09;4979708;28;20074;-88
2022/06/17 09:38:13;;;;;;;2.30;0.80;;;;;;;16.43;100.00;101063.47;4987996;28;20058;-88
2022/06/17 09:41:12;;;;;;;1.13;0.77;;;;;;;16.57;100.00;101065.16;4970801;28;20129;-87
2022/06/17 09:43:44;;;;;;;2.10;0.60;;;;;;;16.62;100.00;101059.94;4971281;28;20707;-89
2022/06/17 09:46:21;;;;;;;1.20;0.70;;;;;;;16.79;100.00;101056.84;4968054;28;20432;-85
2022/06/17 09:49:12;;;;;;;1.08;0.75;;;;;;;16.99;100.00;101067.66;4988995;28;20113;-87
2022/06/17 09:51:41;;;;;;;0.95;0.60;;;;;;;16.99;100.00;101064.94;4976219;28;20618;-86
2022/06/17 09:54:12;;;;;;;1.27;0.77;;;;;;;16.99;100.00;101056.81;4985878;28;20117;-91
2022/06/17 09:56:58;;;;;;;1.00;0.75;;;;;;;16.82;100.00;101070.00;4989822;28;20038;-87
2022/06/17 09:59:30;;;;;;;0.55;0.52;;;;;;;16.77;100.00;101069.75;4984886;28;20030;-78
2022/06/17 10:01:59;;;;;;;0.57;0.57;;;;;;;16.77;100.00;101075.19;4951762;28;20038;-78
2022/06/17 10:04:35;;;;;;;0.52;0.50;;;;;;;16.74;100.00;101086.47;4958499;28;20477;-81
2022/06/17 10:07:01;;;;;;;0.85;0.70;;;;;;;16.41;100.00;101060.13;4969353;28;20392;-79
2022/06/17 10:09:35;;;;;;;1.42;0.63;;;;;;;16.62;100.00;101088.97;4986160;28;20034;-79
2022/06/17 10:12:22;;;;;;;1.23;0.77;;;;;;;16.59;100.00;101103.81;4984196;28;20034;-79
2022/06/17 10:15:01;;;;;;;0.60;0.57;;;;;;;16.55;100.00;101099.81;4986334;28;20034;-80
2022/06/17 10:20:35;;;;;;;0.73;0.70;;;;;;;16.42;100.00;101111.47;4987060;28;20030;-79
2022/06/17 10:23:14;;;;;;;0.60;0.60;;;;;;;16.39;100.00;101111.06;4964381;28;20038;-81
2022/06/17 10:26:04;;;;;;;2.08;0.90;;;;;;;16.38;100.00;101120.22;4984308;28;20030;-79
2022/06/17 10:28:56;;;;;;;0.82;0.70;;;;;;;16.35;100.00;101126.91;4980141;28;20049;-79
2022/06/17 10:31:45;;;;;;;2.47;0.70;;;;;;;16.43;100.00;101142.16;4964495;28;20046;-79
2022/06/17 10:34:22;;;;;;;0.63;0.63;;;;;;;16.47;100.00;101135.31;4968251;28;20033;-79
2022/06/17 10:36:52;;;;;;;0.90;0.73;;;;;;;16.60;100.00;101150.78;4976764;28;20070;-79
2022/06/17 10:39:19;;;;;;;2.35;0.70;;;;;;;16.78;100.00;101153.78;4981542;28;20475;-80
2022/06/17 10:41:46;;;;;;;1.25;0.80;;;;;;;17.10;100.00;101140.41;4960189;28;20031;-79
2022/06/17 10:44:14;;;;;;;0.77;0.60;;;;;;;17.48;100.00;101129.69;4966126;28;20041;-79
2022/06/17 10:46:42;;;;;;;0.70;0.70;;;;;;;17.71;100.00;101131.94;4981125;28;20050;-80
2022/06/17 10:49:30;;;;;;;1.42;0.75;;;;;;;18.02;100.00;101133.13;4984863;28;20043;-79
2022/06/17 10:51:56;;;;;;;0.77;0.77;;;;;;;18.12;100.00;101138.09;4997948;28;20038;-79
2022/06/17 10:54:27;;;;;;;1.67;0.80;;;;;;;18.04;100.00;101128.28;4970163;28;20070;-80
2022/06/17 10:57:05;;;;;;;0.98;0.80;;;;;;;17.93;100.00;101140.66;4970720;28;20077;-78
2022/06/17 10:59:35;;;;;;;0.82;0.70;;;;;;;17.92;100.00;101146.34;4989915;28;20041;-79
2022/06/17 11:02:01;;;;;;;0.65;0.65;;;;;;;17.83;100.00;101112.25;4981319;28;20123;-79
2022/06/17 11:04:34;;;;;;;1.38;0.80;;;;;;;18.06;100.00;101122.63;4971466;28;20061;-79
2022/06/17 11:07:15;;;;;;;1.13;0.80;;;;;;;18.39;100.00;101153.25;4950306;28;20392;-78
2022/06/17 11:09:52;;;;;;;0.60;0.60;;;;;;;18.68;100.00;101156.41;4969623;28;20041;-79
2022/06/17 11:12:24;;;;;;;2.28;0.80;;;;;;;18.65;100.00;101162.28;4951329;28;20077;-79
2022/06/17 11:14:53;;;;;;;0.90;0.70;;;;;;;18.34;100.00;101136.72;4969657;28;20484;-78
2022/06/17 11:17:21;;;;;;;1.52;1.00;;;;;;;18.30;100.00;101157.25;4963448;28;20038;-81
2022/06/17 11:19:50;;;;;;;1.05;0.70;;;;;;;18.32;100.00;101157.88;4985158;28;20080;-78
2022/06/17 11:22:27;;;;;;;0.60;0.60;;;;;;;18.33;100.00;101172.31;4952441;28;20045;-79
2022/06/17 11:24:56;;;;;;;0.75;0.75;;;;;;;18.30;100.00;101173.59;4950563;28;20050;-80
2022/06/17 11:27:31;;;;;;;0.90;0.80;;;;;;;18.35;100.00;101178.41;4968499;28;20478;-80
2022/06/17 11:30:18;;;;;;;0.70;0.70;;;;;;;18.12;100.00;101170.75;4951181;28;20369;-81
2022/06/17 11:32:46;;;;;;;0.70;0.70;;;;;;;17.82;100.00;101165.81;4965564;28;20373;-79
2022/06/17 11:35:27;;;;;;;0.70;0.70;;;;;;;17.79;100.00;101188.84;4964923;28;20483;-80
2022/06/17 11:37:54;;;;;;;0.90;0.70;;;;;;;17.72;100.00;101192.59;4968512;28;20034;-79
2022/06/17 11:40:25;;;;;;;0.93;0.90;;;;;;;17.80;100.00;101200.56;4966016;28;20035;-79
2022/06/17 11:43:03;;;;;;;1.17;0.80;;;;;;;17.89;100.00;101182.13;4982413;28;20026;-79
2022/06/17 11:45:32;;;;;;;2.05;1.02;;;;;;;17.96;100.00;101197.38;4955503;28;22185;-81
2022/06/17 11:48:19;;;;;;;2.35;1.00;;;;;;;18.00;100.00;101205.97;4986113;28;20403;-81
2022/06/17 11:51:07;;;;;;;1.38;0.82;;;;;;;17.78;100.00;101198.03;4957754;28;20030;-78
2022/06/17 11:53:43;;;;;;;1.52;1.13;;;;;;;17.77;100.00;101215.38;4971229;28;20031;-80
2022/06/17 11:56:10;;;;;;;2.67;1.05;;;;;;;17.96;100.00;101216.41;4953151;28;20030;-78